KDCY

Daviess County Airport

Washington, Indiana, USA
METAR KDCY 191455Z AUTO 19008KT 10SM CLR M04/M10 A3017 RMK AO2 T10411105
Observed Flight Rules
Jan-19 @ 14:55 UTC (29 minutes ago) Visual Flight Rules
Wind Visibility Clouds
190° at 8 knots 10 miles
  • Clear skies
Temperatures Readings
Current -4°C / 25°F
Dewpoint -11°C / 12°F
Humidity 59%
Altimeter 30.17" Hg
Pressure 1022 hPa
Elevation 144
METAR KDCY 191455Z AUTO 19008KT 10SM CLR M04/M10 A3017 RMK AO2 T10411105
Observed Flight Rules
Jan-19 @ 14:55 UTC
(29 minutes ago)
VFR
Wind Visibility
190° at 8 knots 10 miles
Clouds
  • Clear skies
Temperature Dewpoint
-4°C / 25°F -11°C / 12°F
Humidity Altimeter Pressure
59% 30.17" Hg 1022 hPa